createdAt,value
2022-08-27T00:00:47.804Z,62.61
2022-08-27T00:03:15.482Z,62.42
2022-08-27T00:05:44.195Z,62.65
2022-08-27T00:08:12.308Z,62.41
2022-08-27T00:10:40.132Z,62.63
2022-08-27T00:13:07.557Z,62.61
2022-08-27T00:15:34.982Z,62.57
2022-08-27T00:18:02.409Z,62.74
2022-08-27T00:20:29.865Z,62.63
2022-08-27T00:22:58.563Z,62.35
2022-08-27T00:25:25.985Z,62.59
2022-08-27T00:27:53.400Z,62.53
2022-08-27T00:30:22.136Z,62.42
2022-08-27T00:32:49.654Z,62.82
2022-08-27T00:35:17.306Z,62.94
2022-08-27T00:37:44.834Z,62.71
2022-08-27T00:40:15.943Z,62.56
2022-08-27T00:42:45.838Z,62.73
2022-08-27T00:45:13.548Z,62.81
2022-08-27T00:47:43.860Z,62.80
2022-08-27T00:50:13.464Z,62.47
2022-08-27T00:52:43.485Z,62.48
2022-08-27T00:55:12.808Z,62.34
2022-08-27T00:57:42.229Z,62.75
2022-08-27T01:00:12.135Z,62.58
2022-08-27T01:02:39.569Z,62.47
2022-08-27T01:05:09.275Z,62.48
2022-08-27T01:07:38.532Z,62.53
2022-08-27T01:10:08.060Z,62.45
2022-08-27T01:12:35.490Z,62.47
2022-08-27T01:15:05.892Z,62.71
2022-08-27T01:17:33.329Z,62.70
2022-08-27T01:20:02.344Z,62.37
2022-08-27T01:22:32.323Z,62.71
2022-08-27T01:25:01.928Z,62.64
2022-08-27T01:27:31.308Z,62.70
2022-08-27T01:29:58.752Z,62.87
2022-08-27T01:32:27.440Z,62.47
2022-08-27T01:34:54.880Z,62.61
2022-08-27T01:37:23.846Z,62.71
2022-08-27T01:39:52.011Z,62.50
2022-08-27T01:42:23.339Z,62.58
2022-08-27T01:44:52.220Z,62.59
2022-08-27T01:47:20.761Z,62.48
2022-08-27T01:49:48.343Z,62.63
2022-08-27T01:52:16.341Z,62.51
2022-08-27T01:54:43.811Z,62.77
2022-08-27T01:57:11.261Z,62.61
2022-08-27T01:59:40.166Z,62.61
2022-08-27T02:02:07.698Z,62.65
2022-08-27T02:04:36.268Z,62.52
2022-08-27T02:07:03.996Z,62.89
2022-08-27T02:09:31.557Z,62.73
2022-08-27T02:12:00.449Z,62.61
2022-08-27T02:14:27.943Z,62.76
2022-08-27T02:16:56.778Z,62.72
2022-08-27T02:19:24.387Z,62.61
2022-08-27T02:21:51.822Z,62.86
2022-08-27T02:24:19.249Z,62.59
2022-08-27T02:26:46.689Z,62.67
2022-08-27T02:29:14.415Z,62.88
2022-08-27T02:31:42.116Z,62.57
2022-08-27T02:34:10.973Z,62.79
2022-08-27T02:36:38.407Z,62.67
2022-08-27T02:39:06.011Z,62.55
2022-08-27T02:41:33.438Z,62.55
2022-08-27T02:44:01.364Z,62.92
2022-08-27T02:46:29.001Z,62.59
2022-08-27T02:48:56.536Z,62.86
2022-08-27T02:51:25.313Z,62.78
2022-08-27T02:53:52.982Z,62.79
2022-08-27T02:56:21.741Z,62.73
2022-08-27T02:58:49.431Z,62.63
2022-08-27T03:01:16.937Z,62.77
2022-08-27T03:03:44.431Z,62.58
2022-08-27T03:06:11.872Z,62.88
2022-08-27T03:08:52.978Z,62.64
2022-08-27T03:11:22.382Z,62.82
2022-08-27T03:13:49.825Z,62.54
2022-08-27T03:16:17.303Z,62.79
2022-08-27T03:18:44.314Z,62.59
2022-08-27T03:21:16.452Z,63.04
2022-08-27T03:23:45.163Z,63.25
2022-08-27T03:26:12.703Z,62.75
2022-08-27T03:28:40.217Z,63.11
2022-08-27T03:31:09.485Z,62.77
2022-08-27T03:33:38.219Z,62.67
2022-08-27T03:36:06.132Z,62.87
2022-08-27T03:38:33.616Z,63.07
2022-08-27T03:41:02.626Z,62.74
2022-08-27T03:43:30.050Z,62.87
2022-08-27T03:46:01.473Z,62.81
2022-08-27T03:48:30.283Z,63.03
2022-08-27T03:50:57.716Z,63.07
2022-08-27T03:53:25.921Z,62.92
2022-08-27T03:55:53.375Z,62.78
2022-08-27T03:58:22.107Z,62.91
2022-08-27T04:00:49.544Z,62.97
2022-08-27T04:03:16.971Z,62.96
2022-08-27T04:05:45.391Z,62.93
2022-08-27T04:08:13.188Z,63.10
2022-08-27T04:10:40.859Z,62.78
2022-08-27T04:13:08.294Z,62.93
2022-08-27T04:15:39.518Z,62.96
2022-08-27T04:18:08.351Z,63.10
2022-08-27T04:20:36.402Z,63.21
2022-08-27T04:23:04.002Z,62.96
2022-08-27T04:25:31.448Z,63.05
2022-08-27T04:27:59.014Z,63.19
2022-08-27T04:30:26.678Z,62.96
2022-08-27T04:32:55.387Z,63.25
2022-08-27T04:35:22.872Z,63.07
2022-08-27T04:37:50.300Z,62.86
2022-08-27T04:40:17.782Z,62.98
2022-08-27T04:42:45.485Z,62.93
2022-08-27T04:45:12.916Z,63.19
2022-08-27T04:47:40.392Z,62.90
2022-08-27T04:50:09.700Z,63.18
2022-08-27T04:52:40.759Z,63.06
2022-08-27T04:55:09.540Z,63.25
2022-08-27T04:57:37.958Z,63.10
2022-08-27T05:00:07.032Z,63.09
2022-08-27T05:02:34.462Z,63.01
2022-08-27T05:05:01.992Z,62.85
2022-08-27T05:07:30.784Z,62.76
2022-08-27T05:09:58.240Z,63.27
2022-08-27T05:12:25.696Z,63.02
2022-08-27T05:14:53.137Z,62.99
2022-08-27T05:17:21.803Z,62.89
2022-08-27T05:19:49.316Z,63.03
2022-08-27T05:22:16.734Z,63.00
2022-08-27T05:24:50.243Z,63.15
2022-08-27T05:27:17.992Z,63.01
2022-08-27T05:29:45.439Z,63.14
2022-08-27T05:32:13.394Z,62.81
2022-08-27T05:34:40.832Z,62.83
2022-08-27T05:37:08.443Z,62.74
2022-08-27T05:39:35.888Z,63.04
2022-08-27T05:42:04.932Z,63.05
2022-08-27T05:44:41.370Z,63.10
2022-08-27T05:47:09.338Z,63.10
2022-08-27T05:49:37.577Z,63.01
2022-08-27T05:52:08.262Z,63.17
2022-08-27T05:54:35.696Z,62.88
2022-08-27T05:57:03.122Z,62.87
2022-08-27T05:59:49.624Z,62.96
2022-08-27T06:02:18.790Z,62.92
2022-08-27T06:04:46.827Z,62.79
2022-08-27T06:07:15.432Z,62.94
2022-08-27T06:09:43.315Z,63.07
2022-08-27T06:12:10.786Z,63.03
2022-08-27T06:14:39.566Z,63.15
2022-08-27T06:17:07.272Z,62.80
2022-08-27T06:19:36.322Z,62.85
2022-08-27T06:22:10.049Z,62.89
2022-08-27T06:24:39.217Z,63.11
2022-08-27T06:27:06.738Z,63.13
2022-08-27T06:29:35.118Z,63.09
2022-08-27T06:32:04.667Z,62.71
2022-08-27T06:34:32.155Z,63.05
2022-08-27T06:36:59.585Z,63.12
2022-08-27T06:39:27.061Z,63.22
2022-08-27T06:41:55.095Z,63.03
2022-08-27T06:44:24.252Z,62.86
2022-08-27T06:46:52.391Z,63.08
2022-08-27T06:49:21.119Z,62.98
2022-08-27T06:51:48.819Z,62.92
2022-08-27T06:54:16.656Z,62.99
2022-08-27T06:56:44.361Z,63.12
2022-08-27T06:59:12.810Z,63.03
2022-08-27T07:01:41.540Z,63.06
2022-08-27T07:04:10.240Z,63.13
2022-08-27T07:06:39.410Z,62.85
2022-08-27T07:09:07.403Z,62.84
2022-08-27T07:11:34.838Z,63.04
2022-08-27T07:14:02.337Z,63.10
2022-08-27T07:16:30.220Z,63.11
2022-08-27T07:18:58.989Z,63.05
2022-08-27T07:21:31.857Z,62.82
2022-08-27T07:24:04.610Z,63.14
2022-08-27T07:26:32.687Z,62.90
2022-08-27T07:29:00.825Z,63.02
2022-08-27T07:31:28.525Z,63.03
2022-08-27T07:33:56.033Z,63.19
2022-08-27T07:36:24.349Z,62.94
2022-08-27T07:38:59.162Z,63.13
2022-08-27T07:41:31.350Z,63.22
2022-08-27T07:44:16.783Z,63.12
2022-08-27T07:46:47.854Z,63.10
2022-08-27T07:49:16.500Z,62.85
2022-08-27T07:51:44.336Z,63.10
2022-08-27T07:54:11.827Z,62.92
2022-08-27T07:56:40.670Z,62.95
2022-08-27T07:59:08.152Z,62.90
2022-08-27T08:01:35.995Z,63.03
2022-08-27T08:04:03.769Z,63.19
2022-08-27T08:06:31.404Z,63.21
2022-08-27T08:08:59.809Z,62.89
2022-08-27T08:11:27.286Z,63.10
2022-08-27T08:13:56.025Z,62.99
2022-08-27T08:16:28.344Z,63.18
2022-08-27T08:19:00.148Z,62.93
2022-08-27T08:21:27.593Z,62.92
2022-08-27T08:23:55.022Z,63.12
2022-08-27T08:26:23.023Z,63.22
2022-08-27T08:28:50.645Z,63.22
2022-08-27T08:31:19.697Z,63.07
2022-08-27T08:33:48.045Z,63.07
2022-08-27T08:36:15.957Z,63.11
2022-08-27T08:38:43.679Z,62.97
2022-08-27T08:41:26.662Z,62.80
2022-08-27T08:43:54.128Z,62.88
2022-08-27T08:46:27.899Z,63.00
2022-08-27T08:48:56.732Z,62.84
2022-08-27T08:51:26.332Z,63.06
2022-08-27T08:53:54.780Z,63.06
2022-08-27T08:56:24.442Z,63.11
2022-08-27T08:58:53.635Z,63.01
2022-08-27T09:01:24.738Z,63.00
2022-08-27T09:03:53.921Z,63.06
2022-08-27T09:06:26.570Z,62.85
2022-08-27T09:08:54.709Z,63.10
2022-08-27T09:11:27.802Z,62.92
2022-08-27T09:13:57.149Z,62.88
2022-08-27T09:16:25.960Z,63.24
2022-08-27T09:18:53.447Z,63.18
2022-08-27T09:21:28.245Z,63.08
2022-08-27T09:24:07.267Z,63.00
2022-08-27T09:26:37.157Z,63.10
2022-08-27T09:29:19.784Z,63.17
2022-08-27T09:31:54.605Z,63.02
2022-08-27T09:34:22.041Z,62.91
2022-08-27T09:36:50.711Z,63.13
2022-08-27T09:39:18.530Z,63.07
2022-08-27T09:41:46.839Z,62.99
2022-08-27T09:44:15.266Z,63.05
2022-08-27T09:46:56.363Z,62.95
2022-08-27T09:49:24.084Z,63.06
2022-08-27T09:51:51.648Z,63.07
2022-08-27T09:54:28.042Z,63.14
2022-08-27T09:56:55.548Z,63.04
2022-08-27T09:59:24.202Z,63.09
2022-08-27T10:01:54.155Z,62.98
2022-08-27T10:04:26.693Z,63.27
2022-08-27T10:06:54.628Z,62.91
2022-08-27T10:09:24.562Z,63.05
2022-08-27T10:11:59.292Z,63.27
2022-08-27T10:14:29.595Z,63.17
2022-08-27T10:17:04.754Z,63.08
2022-08-27T10:19:39.409Z,62.94
2022-08-27T10:22:11.218Z,62.85
2022-08-27T10:24:41.325Z,63.09
2022-08-27T10:27:11.336Z,63.32
2022-08-27T10:29:42.107Z,63.32
2022-08-27T10:32:16.532Z,63.05
2022-08-27T10:34:46.933Z,62.94
2022-08-27T10:37:19.857Z,63.34
2022-08-27T10:39:56.148Z,63.22
2022-08-27T10:42:27.156Z,63.14
2022-08-27T10:45:05.161Z,63.27
2022-08-27T10:47:44.581Z,62.99
2022-08-27T10:50:18.539Z,63.25
2022-08-27T10:52:51.447Z,63.04
2022-08-27T10:55:20.937Z,63.17
2022-08-27T10:58:02.744Z,63.10
2022-08-27T11:00:36.135Z,62.94
2022-08-27T11:03:07.661Z,62.91
2022-08-27T11:05:37.793Z,63.13
2022-08-27T11:08:08.773Z,63.26
2022-08-27T11:10:37.482Z,63.09
2022-08-27T11:13:06.445Z,63.00
2022-08-27T11:15:34.707Z,63.12
2022-08-27T11:18:06.352Z,63.21
2022-08-27T11:20:36.953Z,63.10
2022-08-27T11:23:05.697Z,62.86
2022-08-27T11:25:42.100Z,62.87
2022-08-27T11:28:09.676Z,63.07
2022-08-27T11:30:42.419Z,63.27
2022-08-27T11:33:14.592Z,63.17
2022-08-27T11:35:48.355Z,63.26
2022-08-27T11:38:27.535Z,63.05
2022-08-27T11:41:00.485Z,63.25
2022-08-27T11:43:28.628Z,62.81
2022-08-27T11:45:57.747Z,62.98
2022-08-27T11:48:28.277Z,63.39
2022-08-27T11:50:57.387Z,62.96
2022-08-27T11:53:28.446Z,63.19
2022-08-27T11:55:56.176Z,62.99
2022-08-27T11:58:26.949Z,63.18
2022-08-27T12:00:54.427Z,62.83
2022-08-27T12:03:28.946Z,62.82
2022-08-27T12:06:09.965Z,63.22
2022-08-27T12:08:37.556Z,63.21
2022-08-27T12:11:23.931Z,62.83
2022-08-27T12:13:53.925Z,63.01
2022-08-27T12:16:27.136Z,63.01
2022-08-27T12:19:02.507Z,63.04
2022-08-27T12:21:37.920Z,63.19
2022-08-27T12:24:30.626Z,63.06
2022-08-27T12:26:59.092Z,63.00
2022-08-27T12:29:31.162Z,62.91
2022-08-27T12:32:04.304Z,63.22
2022-08-27T12:34:41.880Z,63.17
2022-08-27T12:37:10.735Z,63.31
2022-08-27T12:39:39.084Z,63.28
2022-08-27T12:42:13.197Z,63.24
2022-08-27T12:44:40.785Z,63.23
2022-08-27T12:47:11.742Z,63.32
2022-08-27T12:49:42.883Z,62.97
2022-08-27T12:52:17.886Z,63.09
2022-08-27T12:54:56.615Z,63.14
2022-08-27T12:57:25.761Z,62.96
2022-08-27T13:00:14.321Z,63.16
2022-08-27T13:03:03.524Z,63.23
2022-08-27T13:05:38.612Z,63.07
2022-08-27T13:08:06.677Z,63.26
2022-08-27T13:10:34.145Z,62.99
2022-08-27T13:13:03.956Z,62.71
2022-08-27T13:15:31.557Z,62.98
2022-08-27T13:18:02.999Z,62.70
2022-08-27T13:20:30.583Z,62.77
2022-08-27T13:22:59.316Z,62.78
2022-08-27T13:25:28.984Z,63.12
2022-08-27T13:27:59.990Z,62.84
2022-08-27T13:30:36.030Z,63.07
2022-08-27T13:33:04.934Z,62.92
2022-08-27T13:35:32.655Z,63.11
2022-08-27T13:38:02.161Z,63.16
2022-08-27T13:40:31.214Z,63.03
2022-08-27T13:43:03.150Z,63.10
2022-08-27T13:45:30.760Z,63.03
2022-08-27T13:47:58.236Z,62.91
2022-08-27T13:50:26.944Z,62.92
2022-08-27T13:53:12.768Z,63.02
2022-08-27T13:55:41.632Z,63.01
2022-08-27T13:58:15.510Z,62.89
2022-08-27T14:00:42.992Z,62.82
2022-08-27T14:03:24.959Z,62.96
2022-08-27T14:05:52.481Z,62.99
2022-08-27T14:08:20.054Z,63.05
2022-08-27T14:10:49.592Z,63.15
2022-08-27T14:13:22.094Z,62.89
2022-08-27T14:15:50.371Z,62.97
2022-08-27T14:18:32.393Z,62.88
2022-08-27T14:21:10.376Z,62.97
2022-08-27T14:23:37.813Z,62.80
2022-08-27T14:26:07.011Z,62.83
2022-08-27T14:28:34.485Z,63.16
2022-08-27T14:31:02.040Z,62.71
2022-08-27T14:33:29.545Z,63.13
2022-08-27T14:35:57.085Z,62.77
2022-08-27T14:38:26.727Z,63.09
2022-08-27T14:40:54.862Z,63.02
2022-08-27T14:43:24.367Z,63.05
2022-08-27T14:45:51.917Z,62.92
2022-08-27T14:48:20.865Z,63.06
2022-08-27T14:50:56.605Z,63.01
2022-08-27T14:53:24.134Z,62.79
2022-08-27T14:55:52.376Z,63.06
2022-08-27T14:58:20.303Z,63.10
2022-08-27T15:00:49.044Z,63.15
2022-08-27T15:03:16.473Z,63.03
2022-08-27T15:05:44.950Z,62.95
2022-08-27T15:08:13.567Z,63.02
2022-08-27T15:10:41.100Z,63.04
2022-08-27T15:13:09.502Z,62.89
2022-08-27T15:15:37.703Z,62.85
2022-08-27T15:18:06.679Z,62.84
2022-08-27T15:20:34.184Z,62.89
2022-08-27T15:23:01.621Z,63.07
2022-08-27T15:25:30.666Z,63.10
2022-08-27T15:27:58.232Z,63.10
2022-08-27T15:30:27.236Z,63.01
2022-08-27T15:32:54.714Z,63.22
2022-08-27T15:35:26.325Z,63.03
2022-08-27T15:37:53.911Z,63.17
2022-08-27T15:40:21.781Z,63.07
2022-08-27T15:42:50.978Z,62.90
2022-08-27T15:45:18.410Z,62.96
2022-08-27T15:47:45.843Z,63.08
2022-08-27T15:50:13.329Z,63.20
2022-08-27T15:52:42.253Z,62.86
2022-08-27T15:55:14.840Z,63.00
2022-08-27T15:57:42.298Z,62.81
2022-08-27T16:00:11.042Z,63.05
2022-08-27T16:02:38.520Z,63.12
2022-08-27T16:05:07.313Z,62.87
2022-08-27T16:07:34.740Z,62.91
2022-08-27T16:10:04.210Z,63.12
2022-08-27T16:12:31.637Z,63.07
2022-08-27T16:14:59.080Z,63.05
2022-08-27T16:17:27.311Z,63.05
2022-08-27T16:19:54.761Z,63.08
2022-08-27T16:22:22.217Z,63.05
2022-08-27T16:24:49.688Z,62.88
2022-08-27T16:27:18.421Z,62.87
2022-08-27T16:29:45.878Z,63.14
2022-08-27T16:32:17.053Z,63.26
2022-08-27T16:34:47.346Z,63.33
2022-08-27T16:37:14.901Z,63.00
2022-08-27T16:39:42.340Z,62.97
2022-08-27T16:42:10.614Z,62.74
2022-08-27T16:44:39.602Z,63.14
2022-08-27T16:47:07.439Z,63.03
2022-08-27T16:49:52.420Z,62.83
2022-08-27T16:52:20.775Z,62.88
2022-08-27T16:54:48.906Z,63.09
2022-08-27T16:57:16.337Z,63.20
2022-08-27T16:59:45.072Z,63.04
2022-08-27T17:02:16.925Z,62.92
2022-08-27T17:04:49.268Z,63.18
2022-08-27T17:07:26.097Z,62.92
2022-08-27T17:09:53.630Z,63.05
2022-08-27T17:12:24.999Z,63.13
2022-08-27T17:14:55.753Z,62.91
2022-08-27T17:17:23.323Z,62.87
2022-08-27T17:19:50.763Z,63.15
2022-08-27T17:22:18.203Z,62.82
2022-08-27T17:24:45.638Z,63.22
2022-08-27T17:27:13.067Z,63.08
2022-08-27T17:29:40.494Z,62.79
2022-08-27T17:32:09.275Z,63.09
2022-08-27T17:34:36.780Z,63.20
2022-08-27T17:37:04.208Z,63.01
2022-08-27T17:39:31.648Z,62.91
2022-08-27T17:41:59.088Z,63.24
2022-08-27T17:44:28.004Z,63.23
2022-08-27T17:46:56.955Z,63.23
2022-08-27T17:49:26.155Z,63.22
2022-08-27T17:51:56.395Z,63.18
2022-08-27T17:54:29.354Z,63.35
2022-08-27T17:56:56.835Z,63.24
2022-08-27T17:59:24.513Z,62.87
2022-08-27T18:01:52.008Z,62.94
2022-08-27T18:04:19.547Z,63.04
2022-08-27T18:06:48.283Z,63.13
2022-08-27T18:09:16.151Z,63.13
2022-08-27T18:11:44.437Z,63.22
2022-08-27T18:14:12.667Z,63.07
2022-08-27T18:16:45.567Z,63.03
2022-08-27T18:19:13.148Z,63.33
2022-08-27T18:21:46.860Z,63.03
2022-08-27T18:24:16.224Z,63.22
2022-08-27T18:26:43.723Z,63.03
2022-08-27T18:29:11.275Z,62.97
2022-08-27T18:31:38.699Z,63.06
2022-08-27T18:34:06.140Z,62.90
2022-08-27T18:36:33.571Z,63.18
2022-08-27T18:39:01.025Z,63.04
2022-08-27T18:41:30.100Z,63.06
2022-08-27T18:43:58.022Z,63.15
2022-08-27T18:46:25.494Z,62.78
2022-08-27T18:48:52.967Z,62.98
2022-08-27T18:51:20.498Z,62.83
2022-08-27T18:53:48.380Z,62.98
2022-08-27T18:56:18.585Z,63.12
2022-08-27T18:58:47.542Z,63.31
2022-08-27T19:01:16.645Z,63.17
2022-08-27T19:03:45.299Z,63.17
2022-08-27T19:06:12.894Z,62.93
2022-08-27T19:08:40.458Z,63.13
2022-08-27T19:11:07.952Z,62.85
2022-08-27T19:13:35.525Z,62.97
2022-08-27T19:16:05.741Z,62.98
2022-08-27T19:18:34.633Z,62.95
2022-08-27T19:21:02.184Z,62.94
2022-08-27T19:23:29.666Z,63.17
2022-08-27T19:25:57.260Z,63.05
2022-08-27T19:28:25.890Z,63.03
2022-08-27T19:30:53.496Z,63.11
2022-08-27T19:33:22.753Z,63.04
2022-08-27T19:35:50.343Z,63.15
2022-08-27T19:38:17.850Z,63.09
2022-08-27T19:40:45.329Z,63.14
2022-08-27T19:43:12.857Z,63.05
2022-08-27T19:45:41.282Z,63.93
2022-08-27T19:48:08.954Z,64.25
2022-08-27T19:50:37.712Z,63.80
2022-08-27T19:53:05.245Z,64.80
2022-08-27T19:55:32.698Z,64.19
2022-08-27T19:58:00.179Z,64.57
2022-08-27T20:00:28.061Z,64.49
2022-08-27T20:02:55.545Z,64.52
2022-08-27T20:05:23.481Z,64.00
2022-08-27T20:07:52.846Z,64.11
2022-08-27T20:10:21.661Z,64.61
2022-08-27T20:12:49.238Z,64.47
2022-08-27T20:15:16.682Z,64.31
2022-08-27T20:17:45.231Z,64.44
2022-08-27T20:20:13.157Z,64.42
2022-08-27T20:22:40.618Z,64.18
2022-08-27T20:25:10.020Z,64.26
2022-08-27T20:27:37.704Z,64.36
2022-08-27T20:30:06.330Z,63.96
2022-08-27T20:32:35.447Z,64.46
2022-08-27T20:35:03.093Z,64.47
2022-08-27T20:37:30.671Z,64.64
2022-08-27T20:39:58.227Z,64.40
2022-08-27T20:42:26.951Z,64.64
2022-08-27T20:44:54.599Z,64.05
2022-08-27T20:47:22.241Z,64.07
2022-08-27T20:49:49.733Z,64.01
2022-08-27T20:52:19.054Z,63.79
2022-08-27T20:54:46.615Z,63.92
2022-08-27T20:57:14.253Z,64.17
2022-08-27T21:00:00.627Z,63.91
2022-08-27T21:02:29.131Z,64.26
2022-08-27T21:04:56.796Z,64.39
2022-08-27T21:07:24.426Z,64.50
2022-08-27T21:09:56.459Z,64.38
2022-08-27T21:12:25.172Z,64.28
2022-08-27T21:14:56.005Z,63.83
2022-08-27T21:17:24.744Z,63.97
2022-08-27T21:19:52.225Z,63.95
2022-08-27T21:22:19.726Z,64.00
2022-08-27T21:24:47.474Z,63.93
2022-08-27T21:27:15.108Z,64.07
2022-08-27T21:29:44.476Z,64.02
2022-08-27T21:32:13.298Z,64.27
2022-08-27T21:34:41.652Z,64.01
2022-08-27T21:37:09.216Z,63.93
2022-08-27T21:39:38.093Z,63.81
2022-08-27T21:42:05.800Z,63.91
2022-08-27T21:44:33.369Z,64.05
2022-08-27T21:47:01.814Z,63.99
2022-08-27T21:49:32.208Z,64.06
2022-08-27T21:51:59.672Z,64.06
2022-08-27T21:54:27.701Z,63.57
2022-08-27T21:56:55.666Z,63.55
2022-08-27T21:59:23.206Z,63.83
2022-08-27T22:02:00.249Z,63.99
2022-08-27T22:04:30.822Z,63.78
2022-08-27T22:06:59.416Z,64.03
2022-08-27T22:09:27.145Z,64.08
2022-08-27T22:11:54.584Z,63.80
2022-08-27T22:14:22.015Z,63.63
2022-08-27T22:16:49.885Z,63.86
2022-08-27T22:19:17.307Z,63.77
2022-08-27T22:21:46.140Z,63.59
2022-08-27T22:24:13.852Z,63.95
2022-08-27T22:26:41.290Z,63.52
2022-08-27T22:29:08.972Z,63.79
2022-08-27T22:31:36.436Z,63.83
2022-08-27T22:34:03.908Z,63.54
2022-08-27T22:36:31.373Z,63.46
2022-08-27T22:39:03.690Z,63.91
2022-08-27T22:41:32.512Z,63.69
2022-08-27T22:44:00.174Z,63.48
2022-08-27T22:46:27.700Z,63.76
2022-08-27T22:48:55.170Z,63.60
2022-08-27T22:51:22.587Z,63.61
2022-08-27T22:53:50.026Z,63.72
2022-08-27T22:56:19.145Z,63.61
2022-08-27T22:58:46.581Z,63.59
2022-08-27T23:01:14.101Z,63.61
2022-08-27T23:03:41.592Z,63.60
2022-08-27T23:06:09.115Z,63.74
2022-08-27T23:08:36.642Z,63.54
2022-08-27T23:11:04.219Z,63.38
2022-08-27T23:13:33.099Z,63.67
2022-08-27T23:16:00.627Z,63.42
2022-08-27T23:18:28.188Z,63.80
2022-08-27T23:20:55.676Z,63.82
2022-08-27T23:23:24.441Z,63.79
2022-08-27T23:26:15.307Z,63.48
2022-08-27T23:28:44.403Z,63.89
2022-08-27T23:31:12.054Z,63.58
2022-08-27T23:33:39.569Z,63.64
2022-08-27T23:36:07.375Z,63.39
2022-08-27T23:38:35.052Z,63.75
2022-08-27T23:41:02.580Z,63.59
2022-08-27T23:43:30.162Z,63.98
2022-08-27T23:45:58.880Z,63.56
2022-08-27T23:48:26.709Z,63.82
2022-08-27T23:50:54.295Z,63.46
2022-08-27T23:53:21.854Z,63.53
2022-08-27T23:55:49.289Z,63.57
2022-08-27T23:58:16.786Z,63.91
